Buckie, United Kingdom
Current Conditions -  °F | °C
As of 12:50 AM on Sunday 21 Dec 2014 (Local Time) from EGQS Reporting Station
Light Rain Light Rain  
Wind Chill: 37°   Ceiling: 4700
Heat Index: 43°   Visibility: 6mi
Dew Point: 37°   Wind: 9mph
Humidity: 81%   Direction: 220°SW
Pressure: 29.94"   Gusts: NA
Location:  57.68°N, 2.96°W
Report Text: EGQS 210050Z 22008KT 9999 -RA FEW027 SCT040 BKN047 06/03 Q1014 BLU
Loading
Personal Weather Stations






























Interactive Weather Map New forecast layout! Learn more

10-Day Weather Forecast

Advertisements
Track Severe Weather on mobile